Time;durP1;ratioP1;P1;durP2;ratioP2;P2;SDS_P1;SDS_P2;PMS_P1;PMS_P2;Temp;Humidity;BMP_temperature;BMP_pressure;BME280_temperature;BME280_humidity;BME280_pressure;Samples;Min_cycle;Max_cycle;Signal;HPM_P1;HPM_P2
2022/12/24 00:00:56;;;;;;;100.28;54.45;;;;;;;;;;5032290;28;20049;-69
2022/12/24 00:04:01;;;;;;;89.00;53.33;;;;;;;;;;5032571;28;20044;-69
2022/12/24 00:07:05;;;;;;;92.63;53.65;;;9.00;99.90;;;;;;5032495;28;20048;-69
2022/12/24 00:10:09;;;;;;;98.68;54.03;;;12.40;99.90;;;;;;5032271;28;20056;-69
2022/12/24 00:13:13;;;;;;;84.53;50.67;;;10.60;99.90;;;;;;5031456;28;20389;-69
2022/12/24 00:16:18;;;;;;;89.32;52.90;;;;;;;;;;5032140;28;20060;-68
2022/12/24 00:19:21;;;;;;;80.30;48.65;;;9.60;99.90;;;;;;5032128;28;20049;-68
2022/12/24 00:22:26;;;;;;;89.30;48.95;;;;;;;;;;5032589;28;20108;-68
2022/12/24 00:25:30;;;;;;;79.05;48.33;;;12.50;99.90;;;;;;5031855;28;20393;-68
2022/12/24 00:28:34;;;;;;;73.35;46.55;;;;;;;;;;5032029;28;20040;-68
2022/12/24 00:31:39;;;;;;;88.38;48.30;;;;;;;;;;5031357;28;20072;-68
2022/12/24 00:34:43;;;;;;;78.50;46.63;;;14.80;99.90;;;;;;5031706;28;20044;-68
2022/12/24 00:37:47;;;;;;;83.32;48.25;;;11.40;99.90;;;;;;5031872;28;20044;-68
2022/12/24 00:40:51;;;;;;;74.65;45.03;;;;;;;;;;5031578;28;20072;-68
2022/12/24 00:43:58;;;;;;;74.43;46.88;;;12.20;99.90;;;;;;5031445;28;20397;-68
2022/12/24 00:47:02;;;;;;;81.10;47.72;;;;;;;;;;5031604;28;20040;-68
2022/12/24 00:50:07;;;;;;;86.55;49.75;;;;;;;;;;5031405;28;20040;-68
2022/12/24 00:53:11;;;;;;;93.18;51.30;;;10.90;99.90;;;;;;5031258;28;20401;-68
2022/12/24 00:56:15;;;;;;;85.35;50.10;;;12.50;99.90;;;;;;5031042;28;20049;-68
2022/12/24 00:59:19;;;;;;;84.80;50.60;;;;;;;;;;5031328;28;20511;-69
2022/12/24 01:02:23;;;;;;;89.30;52.80;;;12.30;99.90;;;;;;5031529;28;20049;-68
2022/12/24 01:05:27;;;;;;;87.07;52.55;;;12.70;99.90;;;;;;5031409;28;20044;-68
2022/12/24 01:08:32;;;;;;;87.00;53.05;;;12.30;99.90;;;;;;5030455;28;20546;-68
2022/12/24 01:11:36;;;;;;;87.88;53.15;;;;;;;;;;5031255;28;20048;-68
2022/12/24 01:14:40;;;;;;;85.05;53.03;;;12.50;99.90;;;;;;5031239;28;20401;-68
2022/12/24 01:17:44;;;;;;;91.20;53.65;;;;;;;;;;5031233;28;20053;-68
2022/12/24 01:21:00;;;;;;;91.32;56.88;;;10.20;99.90;;;;;;5031246;28;20044;-68
2022/12/24 01:24:04;;;;;;;92.72;55.55;;;;;;;;;;5030964;28;20044;-68
2022/12/24 01:27:09;;;;;;;93.03;55.70;;;;;;;;;;5030868;28;20068;-68
2022/12/24 01:30:14;;;;;;;95.00;54.25;;;12.40;99.90;;;;;;5031291;28;20492;-68
2022/12/24 01:33:18;;;;;;;96.10;56.08;;;;;;;;;;5030729;28;20056;-68
2022/12/24 01:36:21;;;;;;;97.53;58.20;;;13.40;99.90;;;;;;5030767;28;20068;-69
2022/12/24 01:39:26;;;;;;;98.53;59.92;;;;;;;;;;5031022;28;20108;-68
2022/12/24 01:45:58;;;;;;;96.30;59.00;;;10.00;99.90;;;;;;5035077;28;20064;-68
2022/12/24 01:49:05;;;;;;;105.28;62.40;;;12.50;99.90;;;;;;5045393;28;20037;-68
2022/12/24 01:52:23;;;;;;;104.90;63.08;;;12.40;99.90;;;;;;5035021;28;20053;-69
2022/12/24 01:55:27;;;;;;;115.30;67.60;;;;;;;;;;5034323;28;20049;-68
2022/12/24 01:58:34;;;;;;;106.95;67.90;;;12.50;99.90;;;;;;5035317;28;20036;-68
2022/12/24 02:01:38;;;;;;;113.25;66.65;;;14.00;99.90;;;;;;5034585;28;20040;-68
2022/12/24 02:05:07;;;;;;;105.63;65.45;;;12.60;99.90;;;;;;5034611;28;20040;-68
2022/12/24 02:08:11;;;;;;;103.55;63.03;;;;;;;;;;5034648;28;20044;-68
2022/12/24 02:11:19;;;;;;;99.45;58.78;;;13.60;99.90;;;;;;5034759;28;20040;-68
2022/12/24 02:14:31;;;;;;;102.50;59.50;;;10.40;99.90;;;;;;5034608;28;20044;-68
2022/12/24 02:18:06;;;;;;;91.28;51.20;;;12.40;99.90;;;;;;5033333;28;20044;-68
2022/12/24 02:21:10;;;;;;;59.40;34.40;;;;;;;;;;5030993;28;20056;-67
2022/12/24 02:25:05;;;;;;;64.82;33.88;;;12.60;99.90;;;;;;5034318;28;20058;-67
2022/12/24 02:28:35;;;;;;;72.95;39.95;;;12.70;99.90;;;;;;5021879;28;20692;-69
2022/12/24 02:31:49;;;;;;;70.90;41.17;;;12.60;99.90;;;;;;5033991;28;20049;-69
2022/12/24 02:35:07;;;;;;;72.85;42.90;;;12.50;99.90;;;;;;5033242;28;20052;-69
2022/12/24 02:38:39;;;;;;;68.50;41.67;;;12.60;99.90;;;;;;5034125;28;20049;-69
2022/12/24 02:42:07;;;;;;;71.22;42.65;;;12.70;99.90;;;;;;5033999;28;20501;-69
2022/12/24 02:45:14;;;;;;;70.38;42.60;;;13.30;99.90;;;;;;5033788;28;20045;-69
2022/12/24 02:48:20;;;;;;;70.10;42.35;;;12.70;99.90;;;;;;5033823;28;20401;-69
2022/12/24 02:51:24;;;;;;;80.25;43.72;;;13.00;99.90;;;;;;5033721;28;20519;-69
2022/12/24 02:54:28;;;;;;;80.55;43.95;;;12.80;99.90;;;;;;5033542;28;20419;-69
2022/12/24 02:57:46;;;;;;;69.40;41.92;;;12.70;99.90;;;;;;5021389;28;20061;-67
2022/12/24 03:01:17;;;;;;;73.10;42.92;;;12.80;99.90;;;;;;5033642;28;20053;-68
2022/12/24 03:04:38;;;;;;;74.93;42.65;;;;;;;;;;5033707;28;20401;-69
2022/12/24 03:08:01;;;;;;;79.38;44.13;;;12.60;99.90;;;;;;5033761;28;20508;-69
2022/12/24 03:11:10;;;;;;;71.65;42.67;;;12.40;99.90;;;;;;5033394;28;20041;-69
2022/12/24 03:14:15;;;;;;;74.75;41.67;;;;;;;;;;5033124;28;20056;-69
2022/12/24 03:17:19;;;;;;;60.47;38.20;;;12.70;99.90;;;;;;5033462;28;20184;-69
2022/12/24 03:20:56;;;;;;;64.38;38.72;;;12.50;99.90;;;;;;5033215;28;20064;-69
2022/12/24 03:24:01;;;;;;;67.88;37.80;;;12.40;99.90;;;;;;5032988;28;20421;-69
2022/12/24 03:27:07;;;;;;;68.97;40.85;;;12.20;99.90;;;;;;5033129;28;20045;-69
2022/12/24 03:30:14;;;;;;;62.53;38.03;;;12.80;99.90;;;;;;5033190;28;20040;-69
2022/12/24 03:33:18;;;;;;;66.13;36.40;;;14.30;99.90;;;;;;5032919;28;20068;-69
2022/12/24 03:36:24;;;;;;;60.30;35.45;;;;;;;;;;5033271;28;20052;-69
2022/12/24 03:39:28;;;;;;;60.50;35.63;;;12.50;99.90;;;;;;5033181;28;20500;-69
2022/12/24 03:42:32;;;;;;;62.28;35.28;;;14.10;99.90;;;;;;5033197;28;20048;-69
2022/12/24 03:45:36;;;;;;;49.25;32.30;;;12.90;99.90;;;;;;5032647;28;20044;-69
2022/12/24 03:48:40;;;;;;;66.90;34.38;;;12.90;99.90;;;;;;5032678;28;20558;-68
2022/12/24 03:51:44;;;;;;;62.33;34.55;;;12.70;99.90;;;;;;5033043;28;20040;-69
2022/12/24 03:54:48;;;;;;;58.13;34.15;;;12.20;99.90;;;;;;5032388;28;20052;-69
2022/12/24 03:57:52;;;;;;;65.85;34.50;;;12.70;99.90;;;;;;5032434;28;20041;-69
2022/12/24 04:00:56;;;;;;;49.75;30.88;;;;;;;;;;5032752;28;20060;-68
2022/12/24 04:04:00;;;;;;;55.47;31.27;;;;;;;;;;5032182;28;20125;-68
2022/12/24 04:07:05;;;;;;;56.28;30.20;;;12.70;99.90;;;;;;5030752;28;20315;-68
2022/12/24 04:10:09;;;;;;;49.33;27.67;;;12.90;99.90;;;;;;5032678;28;20406;-68
2022/12/24 04:13:13;;;;;;;53.60;27.55;;;;;;;;;;5032199;28;20056;-68
2022/12/24 04:16:18;;;;;;;48.05;25.52;;;12.90;99.90;;;;;;5032025;28;20496;-68
2022/12/24 04:19:22;;;;;;;41.60;21.38;;;13.00;99.90;;;;;;5032407;28;20049;-68
2022/12/24 04:22:26;;;;;;;40.30;22.27;;;13.00;99.90;;;;;;5032256;28;20041;-68
2022/12/24 04:25:30;;;;;;;41.80;23.27;;;13.00;99.90;;;;;;5032406;28;20052;-68
2022/12/24 04:28:35;;;;;;;45.90;22.48;;;13.00;99.90;;;;;;5032061;28;20036;-68
2022/12/24 04:31:39;;;;;;;38.55;22.70;;;13.00;99.90;;;;;;5032156;28;20047;-68
2022/12/24 04:34:42;;;;;;;50.45;24.80;;;13.00;99.90;;;;;;5031845;28;20052;-68
2022/12/24 04:37:46;;;;;;;46.33;25.38;;;13.10;99.90;;;;;;5031811;28;20045;-68
2022/12/24 04:41:19;;;;;;;45.13;25.70;;;12.90;99.90;;;;;;5030780;28;20044;-68
2022/12/24 04:44:22;;;;;;;45.85;25.35;;;12.90;99.90;;;;;;5031708;28;20361;-68
2022/12/24 04:47:26;;;;;;;48.78;26.98;;;12.90;99.90;;;;;;5031541;28;20044;-68
2022/12/24 04:50:30;;;;;;;57.47;26.90;;;12.00;99.90;;;;;;5031557;28;20040;-68
2022/12/24 04:53:35;;;;;;;46.55;27.60;;;12.90;99.90;;;;;;5031230;28;20057;-68
2022/12/24 04:56:39;;;;;;;49.85;27.35;;;12.90;99.90;;;;;;5031304;28;20508;-68
2022/12/24 04:59:43;;;;;;;57.50;27.85;;;;;;;;;;5031474;28;20044;-68
2022/12/24 05:02:47;;;;;;;56.50;26.38;;;13.00;99.90;;;;;;5031155;28;20048;-68
2022/12/24 05:05:51;;;;;;;51.67;27.40;;;12.90;99.90;;;;;;5031069;28;20037;-68
2022/12/24 05:08:56;;;;;;;57.03;27.75;;;12.90;99.90;;;;;;5031532;28;20397;-68
2022/12/24 05:12:00;;;;;;;52.88;25.17;;;12.90;99.90;;;;;;5031312;28;20060;-68
2022/12/24 05:15:05;;;;;;;38.17;21.77;;;13.10;99.90;;;;;;5031438;28;20295;-68
2022/12/24 05:18:09;;;;;;;47.67;22.88;;;13.10;99.90;;;;;;5031370;28;20040;-68
2022/12/24 05:21:15;;;;;;;47.75;22.25;;;13.10;99.90;;;;;;5031153;28;20051;-70
2022/12/24 05:27:41;;;;;;;57.45;23.13;;;13.20;99.90;;;;;;5031174;28;20044;-69
2022/12/24 05:30:45;;;;;;;43.20;22.63;;;13.10;99.90;;;;;;5030924;28;20053;-69
2022/12/24 05:33:49;;;;;;;44.15;23.27;;;13.20;99.90;;;;;;5030876;28;20056;-69
2022/12/24 05:36:53;;;;;;;40.80;22.13;;;13.20;99.90;;;;;;5031119;28;20040;-69
2022/12/24 05:39:57;;;;;;;45.28;24.50;;;13.20;99.90;;;;;;5030928;28;20048;-69
2022/12/24 05:43:01;;;;;;;42.33;23.23;;;13.20;99.90;;;;;;5031104;28;20041;-68
2022/12/24 05:46:07;;;;;;;54.60;24.75;;;13.20;99.90;;;;;;5031038;28;20040;-68
2022/12/24 05:49:12;;;;;;;42.92;22.50;;;13.30;99.90;;;;;;5031071;28;20393;-69
2022/12/24 05:52:16;;;;;;;48.03;24.23;;;13.40;99.90;;;;;;5031020;28;20064;-68
2022/12/24 05:55:19;;;;;;;42.35;22.98;;;13.20;99.90;;;;;;5041419;28;20058;-68
2022/12/24 05:58:24;;;;;;;53.53;25.98;;;13.20;99.90;;;;;;5031131;28;20041;-68
2022/12/24 06:01:28;;;;;;;45.03;26.33;;;13.20;99.90;;;;;;5031016;28;20124;-68
2022/12/24 06:04:32;;;;;;;44.40;27.00;;;13.20;99.90;;;;;;5030694;28;20044;-68
2022/12/24 06:07:36;;;;;;;61.47;27.83;;;13.10;99.90;;;;;;5030786;28;20064;-68
2022/12/24 06:10:40;;;;;;;54.67;27.05;;;13.10;99.90;;;;;;5030658;28;20060;-69
2022/12/24 06:13:44;;;;;;;46.63;27.17;;;13.00;99.90;;;;;;5030408;28;20413;-67
2022/12/24 06:16:48;;;;;;;44.58;26.35;;;13.00;99.90;;;;;;5029663;28;20433;-68
2022/12/24 06:19:52;;;;;;;44.78;26.02;;;13.00;99.90;;;;;;5030519;28;20048;-68
2022/12/24 06:22:56;;;;;;;46.63;25.77;;;12.90;99.90;;;;;;5030492;28;20040;-68
2022/12/24 06:26:02;;;;;;;42.92;27.63;;;13.00;99.90;;;;;;5030683;28;20048;-68
2022/12/24 06:29:06;;;;;;;50.20;27.30;;;13.00;99.90;;;;;;5029675;28;20045;-68
2022/12/24 06:32:10;;;;;;;44.95;26.15;;;13.00;99.90;;;;;;5034101;28;20041;-68
2022/12/24 06:35:14;;;;;;;56.03;29.40;;;13.10;99.90;;;;;;5034117;28;20519;-68
2022/12/24 06:38:18;;;;;;;54.75;28.92;;;13.10;99.90;;;;;;5034350;28;20044;-69
2022/12/24 06:41:22;;;;;;;63.08;30.23;;;13.10;99.90;;;;;;5034115;28;20492;-68
2022/12/24 06:44:26;;;;;;;52.80;28.77;;;13.00;99.90;;;;;;5033854;28;20393;-68
2022/12/24 06:47:30;;;;;;;74.57;30.92;;;13.00;99.90;;;;;;5033936;28;20057;-65
2022/12/24 06:50:34;;;;;;;52.88;28.48;;;13.10;99.90;;;;;;5033511;28;20044;-63
2022/12/24 06:53:38;;;;;;;55.13;30.10;;;13.00;99.90;;;;;;5033537;28;20063;-63
2022/12/24 06:56:43;;;;;;;50.08;27.75;;;13.00;99.90;;;;;;5033334;28;20056;-64
2022/12/24 06:59:46;;;;;;;45.95;27.75;;;13.10;99.90;;;;;;5033809;28;20048;-64
2022/12/24 07:02:50;;;;;;;49.20;28.20;;;13.10;99.90;;;;;;5033144;28;20037;-64
2022/12/24 07:05:54;;;;;;;51.33;28.50;;;13.20;99.90;;;;;;5033525;28;20060;-64
2022/12/24 07:08:58;;;;;;;49.95;28.05;;;13.20;99.90;;;;;;5033301;28;20057;-66
2022/12/24 07:12:02;;;;;;;44.63;27.08;;;13.10;99.90;;;;;;5033479;28;20057;-65
2022/12/24 07:15:07;;;;;;;43.80;27.55;;;13.10;99.90;;;;;;5033390;28;20048;-64
2022/12/24 07:18:11;;;;;;;52.15;28.08;;;13.10;99.90;;;;;;5033248;28;20500;-65
2022/12/24 07:21:15;;;;;;;45.47;27.02;;;13.10;99.90;;;;;;5033268;28;20402;-64
2022/12/24 07:24:20;;;;;;;52.08;28.05;;;13.10;99.90;;;;;;5033035;28;20045;-64
2022/12/24 07:27:24;;;;;;;46.40;28.10;;;13.20;99.90;;;;;;5033324;28;20048;-65
2022/12/24 07:30:28;;;;;;;58.17;28.25;;;13.20;99.90;;;;;;5032987;28;20072;-64
2022/12/24 07:33:32;;;;;;;51.40;26.85;;;13.20;99.90;;;;;;5032593;28;20041;-64
2022/12/24 07:36:36;;;;;;;52.42;28.40;;;13.40;99.90;;;;;;5032774;28;20556;-64
2022/12/24 07:39:40;;;;;;;49.17;26.58;;;13.40;99.90;;;;;;5031988;28;20337;-64
2022/12/24 07:42:44;;;;;;;45.67;27.38;;;13.40;99.90;;;;;;5031552;28;20044;-64
2022/12/24 07:45:48;;;;;;;53.33;27.90;;;13.40;99.90;;;;;;5031966;28;20048;-62
2022/12/24 07:48:52;;;;;;;58.72;29.08;;;13.40;99.90;;;;;;5032512;28;20033;-63
2022/12/24 07:51:56;;;;;;;60.40;31.15;;;13.50;99.90;;;;;;5032099;28;20493;-63
2022/12/24 07:55:00;;;;;;;54.80;29.67;;;13.50;99.90;;;;;;5032018;28;20068;-62
2022/12/24 07:58:03;;;;;;;57.85;31.02;;;13.60;99.90;;;;;;5032571;28;20049;-63
2022/12/24 08:01:08;;;;;;;47.45;30.35;;;13.50;99.90;;;;;;5032400;28;20044;-63
2022/12/24 08:04:12;;;;;;;51.17;30.92;;;13.60;99.90;;;;;;5032649;28;20045;-63
2022/12/24 08:07:16;;;;;;;49.47;31.30;;;13.60;99.90;;;;;;5032331;28;20053;-63
2022/12/24 08:10:20;;;;;;;58.55;32.38;;;13.60;99.90;;;;;;5032365;28;20405;-63
2022/12/24 08:13:24;;;;;;;48.65;30.17;;;13.60;99.90;;;;;;5031977;28;20052;-63
2022/12/24 08:16:28;;;;;;;50.05;29.33;;;13.70;99.90;;;;;;5032000;28;20052;-63
2022/12/24 08:19:32;;;;;;;49.75;30.23;;;13.70;99.90;;;;;;5032154;28;20045;-63
2022/12/24 08:22:36;;;;;;;52.53;32.08;;;13.70;99.90;;;;;;5032454;28;20044;-63
2022/12/24 08:25:45;;;;;;;57.97;33.83;;;13.80;99.90;;;;;;5032345;28;20049;-63
2022/12/24 08:28:49;;;;;;;51.17;31.23;;;13.80;99.90;;;;;;5031774;28;20060;-63
2022/12/24 08:31:53;;;;;;;60.70;33.40;;;13.80;99.90;;;;;;5032178;28;20044;-63
2022/12/24 08:34:57;;;;;;;58.33;34.05;;;13.90;99.90;;;;;;5031785;28;20059;-63
2022/12/24 08:38:02;;;;;;;69.85;36.80;;;13.90;99.90;;;;;;5032010;28;20148;-61
2022/12/24 08:41:06;;;;;;;65.85;37.47;;;13.90;99.90;;;;;;5031647;28;20057;-63
2022/12/24 08:44:10;;;;;;;74.90;35.60;;;13.90;99.90;;;;;;5031394;28;20037;-63
2022/12/24 08:47:15;;;;;;;68.43;36.17;;;13.90;99.90;;;;;;5031488;28;20514;-61
2022/12/24 08:50:19;;;;;;;55.83;35.30;;;13.90;99.90;;;;;;5031250;28;20056;-63
2022/12/24 08:53:23;;;;;;;58.65;35.08;;;14.00;99.90;;;;;;5031071;28;20048;-63
2022/12/24 08:56:27;;;;;;;62.13;36.35;;;14.00;99.90;;;;;;5031348;28;20065;-62
2022/12/24 08:59:31;;;;;;;78.30;43.22;;;14.10;99.90;;;;;;5030821;28;20048;-63
2022/12/24 09:02:35;;;;;;;61.58;38.45;;;14.10;99.90;;;;;;5031648;28;20049;-63
2022/12/24 09:05:39;;;;;;;51.42;34.08;;;14.10;99.90;;;;;;5031237;28;20472;-63
2022/12/24 09:08:44;;;;;;;57.25;32.13;;;14.20;99.90;;;;;;5031444;28;20488;-63
2022/12/24 09:11:47;;;;;;;44.65;27.40;;;14.30;99.90;;;;;;5031218;28;20105;-63
2022/12/24 09:14:53;;;;;;;44.65;29.42;;;14.30;99.90;;;;;;5030708;28;20068;-63
2022/12/24 09:17:57;;;;;;;43.97;25.67;;;14.40;99.90;;;;;;5031652;28;20196;-63
2022/12/24 09:21:03;;;;;;;35.40;24.58;;;14.40;99.90;;;;;;5031138;28;20064;-63
2022/12/24 09:24:08;;;;;;;36.22;24.38;;;14.50;99.90;;;;;;5030904;28;20045;-64
2022/12/24 09:27:12;;;;;;;34.78;23.55;;;14.50;99.90;;;;;;5031027;28;20060;-63
2022/12/24 09:30:16;;;;;;;36.72;24.90;;;14.50;99.90;;;;;;5030900;28;20044;-61
2022/12/24 09:33:19;;;;;;;51.92;32.15;;;14.50;99.90;;;;;;5030606;28;20052;-61
2022/12/24 09:36:24;;;;;;;60.70;32.22;;;14.60;99.90;;;;;;5030947;28;20060;-61
2022/12/24 09:39:28;;;;;;;47.35;31.65;;;14.60;99.90;;;;;;5030476;28;20049;-61
2022/12/24 09:42:51;;;;;;;46.95;30.20;;;14.70;99.90;;;;;;5030683;28;20052;-61
2022/12/24 09:46:05;;;;;;;57.75;33.38;;;14.70;99.90;;;;;;5030712;28;20069;-61
2022/12/24 09:49:16;;;;;;;65.45;36.67;;;14.80;99.90;;;;;;5030872;28;20398;-61
2022/12/24 09:52:29;;;;;;;52.58;33.03;;;14.90;99.90;;;;;;5030704;28;20044;-61
2022/12/24 09:55:41;;;;;;;57.58;31.08;;;14.90;99.90;;;;;;5029875;28;20049;-61
2022/12/24 09:58:58;;;;;;;49.65;29.52;;;14.90;99.90;;;;;;5040579;28;20045;-62
2022/12/24 10:02:18;;;;;;;45.42;28.08;;;15.00;99.90;;;;;;5030293;28;20224;-62
2022/12/24 10:05:40;;;;;;;44.33;26.40;;;15.00;99.90;;;;;;5031702;28;20068;-62
2022/12/24 10:08:55;;;;;;;40.65;25.45;;;15.10;99.90;;;;;;5034027;28;20496;-62
2022/12/24 10:12:18;;;;;;;38.05;23.17;;;15.10;99.90;;;;;;5033947;28;20048;-61
2022/12/24 10:15:50;;;;;;;40.13;26.40;;;15.10;99.90;;;;;;5033808;28;20052;-64
2022/12/24 10:19:13;;;;;;;55.13;31.42;;;15.20;99.90;;;;;;5034251;28;20586;-62
2022/12/24 10:22:26;;;;;;;43.53;27.00;;;15.20;99.90;;;;;;5034168;28;20040;-63
2022/12/24 10:25:52;;;;;;;39.63;26.00;;;15.20;99.90;;;;;;5033742;28;20295;-61
2022/12/24 10:29:17;;;;;;;40.40;25.00;;;15.20;99.90;;;;;;5033918;28;20060;-64
2022/12/24 10:32:27;;;;;;;39.05;25.63;;;15.30;99.90;;;;;;5033553;28;20064;-62
2022/12/24 10:35:41;;;;;;;42.50;26.60;;;15.30;99.90;;;;;;5033838;28;20072;-62
2022/12/24 10:38:46;;;;;;;38.72;25.05;;;15.30;99.90;;;;;;5033193;28;20068;-62
2022/12/24 10:41:58;;;;;;;39.97;26.20;;;15.30;99.90;;;;;;5032050;28;20076;-64
2022/12/24 10:45:06;;;;;;;46.45;27.10;;;15.30;99.90;;;;;;5033765;28;20044;-61
2022/12/24 10:48:17;;;;;;;48.78;31.38;;;15.30;99.90;;;;;;5032715;28;20052;-61
2022/12/24 10:51:44;;;;;;;49.00;31.50;;;15.30;99.90;;;;;;5032930;28;20044;-61
2022/12/24 10:55:17;;;;;;;52.05;34.88;;;15.40;99.90;;;;;;5033672;28;20060;-61
2022/12/24 10:58:22;;;;;;;55.38;35.67;;;15.40;99.90;;;;;;5033135;28;20052;-61
2022/12/24 11:01:46;;;;;;;59.40;39.78;;;15.40;99.90;;;;;;5033130;28;20048;-61
2022/12/24 11:04:51;;;;;;;64.93;40.55;;;15.40;99.90;;;;;;5032793;28;20072;-61
2022/12/24 11:08:17;;;;;;;57.97;39.83;;;15.40;99.90;;;;;;5033321;28;20033;-61
2022/12/24 11:11:22;;;;;;;58.40;39.65;;;15.40;99.90;;;;;;5033058;28;20108;-61
2022/12/24 11:14:33;;;;;;;63.38;40.33;;;15.40;99.90;;;;;;5033124;28;20056;-61
2022/12/24 11:17:37;;;;;;;64.88;39.33;;;15.50;99.90;;;;;;5032866;28;20040;-61
2022/12/24 11:20:49;;;;;;;61.40;41.85;;;15.50;99.90;;;;;;5032951;28;20048;-61
2022/12/24 11:23:57;;;;;;;63.75;42.83;;;15.50;99.90;;;;;;5032977;28;20508;-61
2022/12/24 11:27:40;;;;;;;60.90;39.70;;;15.50;99.90;;;;;;5032667;28;20044;-61
2022/12/24 11:30:59;;;;;;;65.95;43.47;;;15.50;99.90;;;;;;5032494;28;20113;-61
2022/12/24 11:34:41;;;;;;;64.28;38.38;;;15.50;99.90;;;;;;5032513;28;20041;-61
2022/12/24 11:37:46;;;;;;;;;;;15.60;99.90;;;;;;5022649;28;20045;-61
2022/12/24 11:41:05;;;;;;;58.85;38.03;;;15.60;99.90;;;;;;5031124;28;19909;-61
2022/12/24 11:44:11;;;;;;;66.00;41.50;;;15.60;99.90;;;;;;5032437;28;20100;-61
2022/12/24 11:47:15;;;;;;;56.47;38.90;;;15.60;99.90;;;;;;5032294;28;20512;-61
2022/12/24 11:50:31;;;;;;;55.65;36.15;;;15.60;99.90;;;;;;5032310;28;20044;-61
2022/12/24 11:53:51;;;;;;;54.08;35.58;;;15.60;99.90;;;;;;5032375;28;20040;-61
2022/12/24 11:56:58;;;;;;;51.40;33.50;;;15.60;99.90;;;;;;5031559;28;20060;-61
2022/12/24 12:00:03;;;;;;;50.60;33.22;;;15.70;99.90;;;;;;5031728;28;20044;-61
2022/12/24 12:03:31;;;;;;;49.70;33.63;;;15.60;99.90;;;;;;5031585;28;20052;-61
2022/12/24 12:06:57;;;;;;;54.35;33.95;;;15.70;99.90;;;;;;5031376;28;20053;-61
2022/12/24 12:10:23;;;;;;;52.03;33.22;;;15.60;99.90;;;;;;5031352;28;20045;-61
2022/12/24 12:13:32;;;;;;;50.03;31.77;;;15.70;99.90;;;;;;5031019;28;20401;-61
2022/12/24 12:17:02;;;;;;;44.75;30.67;;;15.70;99.90;;;;;;5031232;28;20044;-61
2022/12/24 12:20:09;;;;;;;56.72;34.38;;;15.70;99.90;;;;;;5031091;28;20040;-61
2022/12/24 12:23:25;;;;;;;52.70;33.15;;;15.70;99.90;;;;;;5031016;28;20052;-61
2022/12/24 12:26:30;;;;;;;53.17;32.28;;;15.70;99.90;;;;;;5030994;28;20528;-61
2022/12/24 12:29:44;;;;;;;51.42;34.90;;;15.80;99.90;;;;;;5030630;28;20049;-61
2022/12/24 12:33:12;;;;;;;61.17;38.85;;;15.80;99.90;;;;;;5030777;28;20111;-61
2022/12/24 12:36:20;;;;;;;55.42;35.05;;;15.80;99.90;;;;;;5030832;28;20398;-61
2022/12/24 12:39:24;;;;;;;57.47;35.63;;;15.80;99.90;;;;;;5030725;28;20044;-61
2022/12/24 12:42:38;;;;;;;46.35;32.60;;;15.90;99.90;;;;;;5030966;28;20044;-61
2022/12/24 12:45:52;;;;;;;57.50;35.15;;;15.90;99.90;;;;;;5031021;28;20040;-60
2022/12/24 12:49:32;;;;;;;57.63;34.50;;;15.90;99.90;;;;;;5030615;28;20120;-60
2022/12/24 12:52:46;;;;;;;54.90;35.15;;;15.90;99.90;;;;;;5030814;28;20397;-61
2022/12/24 12:55:59;;;;;;;50.43;32.37;;;15.90;99.90;;;;;;4987568;28;1229296;-61
2022/12/24 12:59:23;;;;;;;57.25;33.13;;;16.00;99.90;;;;;;5031257;28;20486;-61
2022/12/24 13:02:30;;;;;;;48.53;28.80;;;15.90;99.90;;;;;;5031386;28;20044;-61
2022/12/24 13:06:18;;;;;;;43.55;26.55;;;16.00;99.90;;;;;;5031232;28;20045;-61
2022/12/24 13:09:31;;;;;;;49.08;27.48;;;16.00;99.90;;;;;;5026335;28;20044;-61
2022/12/24 13:12:36;;;;;;;37.72;23.55;;;16.00;99.90;;;;;;5031005;28;20044;-63
2022/12/24 13:16:24;;;;;;;93.35;53.47;;;16.10;99.90;;;;;;5030888;28;20072;-61
2022/12/24 13:19:34;;;;;;;111.97;67.00;;;16.10;99.90;;;;;;5031080;28;20048;-61
2022/12/24 13:22:38;;;;;;;83.97;53.55;;;16.20;99.90;;;;;;5031147;28;20048;-61
2022/12/24 13:25:45;;;;;;;69.45;42.90;;;16.20;99.90;;;;;;5031158;28;20109;-61
2022/12/24 13:28:49;;;;;;;66.25;39.55;;;16.20;99.90;;;;;;5030765;28;20048;-61
2022/12/24 13:32:25;;;;;;;63.75;38.13;;;16.10;99.90;;;;;;5030771;28;20049;-61
2022/12/24 13:35:33;;;;;;;58.63;34.63;;;16.10;99.90;;;;;;5034681;28;20251;-61
2022/12/24 13:38:51;;;;;;;49.78;34.03;;;16.10;99.90;;;;;;5030459;28;20040;-61
2022/12/24 13:41:56;;;;;;;61.35;37.00;;;16.10;99.90;;;;;;5030598;28;20044;-60
2022/12/24 13:45:42;;;;;;;77.00;46.00;;;16.20;99.90;;;;;;5030838;28;20040;-60
2022/12/24 13:48:46;;;;;;;80.60;46.30;;;16.20;99.90;;;;;;5030707;28;20041;-60
2022/12/24 13:51:50;;;;;;;80.90;50.25;;;16.20;99.90;;;;;;5030772;28;20048;-61
2022/12/24 13:54:57;;;;;;;71.03;44.50;;;16.20;99.90;;;;;;5030878;28;20319;-61
2022/12/24 13:58:05;;;;;;;81.35;50.40;;;16.20;99.90;;;;;;5030374;28;20053;-61
2022/12/24 14:01:15;;;;;;;75.47;49.83;;;16.10;99.90;;;;;;5030461;28;20052;-61
2022/12/24 14:04:28;;;;;;;69.35;46.08;;;16.20;99.90;;;;;;5030717;28;20064;-60
2022/12/24 14:07:33;;;;;;;75.82;48.10;;;16.10;99.90;;;;;;5029766;28;20056;-60
2022/12/24 14:10:42;;;;;;;74.97;45.97;;;16.10;99.90;;;;;;5030222;28;20060;-68
2022/12/24 14:13:46;;;;;;;68.53;43.55;;;16.10;99.90;;;;;;5029609;28;20413;-68
2022/12/24 14:16:51;;;;;;;62.58;41.28;;;16.00;99.90;;;;;;5030376;28;20056;-68
2022/12/24 14:19:57;;;;;;;64.35;43.40;;;16.10;99.90;;;;;;5030641;28;20048;-68
2022/12/24 14:23:04;;;;;;;66.47;43.60;;;16.10;99.90;;;;;;5030161;28;20045;-68
2022/12/24 14:26:17;;;;;;;67.15;42.15;;;16.10;99.90;;;;;;5030333;28;20048;-68
2022/12/24 14:29:33;;;;;;;69.78;45.63;;;16.00;99.90;;;;;;5030466;28;20048;-68
2022/12/24 14:32:39;;;;;;;71.22;46.42;;;16.00;99.90;;;;;;5029959;28;20052;-68
2022/12/24 14:35:43;;;;;;;94.57;52.33;;;16.00;99.90;;;;;;5030243;28;20057;-68
2022/12/24 14:38:48;;;;;;;91.13;52.67;;;16.00;99.90;;;;;;5029414;28;20405;-68
2022/12/24 14:42:15;;;;;;;72.82;46.95;;;16.00;99.90;;;;;;5040761;28;20511;-69
2022/12/24 14:45:35;;;;;;;70.28;45.15;;;16.00;99.90;;;;;;5030346;28;20052;-68
2022/12/24 14:48:56;;;;;;;66.82;43.83;;;16.00;99.90;;;;;;5030303;28;20140;-69
2022/12/24 14:52:40;;;;;;;56.87;40.60;;;16.00;99.90;;;;;;5032309;28;20044;-67
2022/12/24 14:55:46;;;;;;;58.05;39.85;;;16.00;99.90;;;;;;5033289;28;20048;-67
2022/12/24 14:58:50;;;;;;;58.13;37.85;;;16.00;99.90;;;;;;5033569;28;20037;-67
2022/12/24 15:01:54;;;;;;;63.53;41.70;;;15.90;99.90;;;;;;5033514;28;20049;-67
2022/12/24 15:05:06;;;;;;;73.95;47.22;;;15.90;99.90;;;;;;5033846;28;20045;-68
2022/12/24 15:08:15;;;;;;;;;;;15.90;99.90;;;;;;5033640;28;20113;-68
2022/12/24 15:11:21;;;;;;;69.85;45.53;;;15.90;99.90;;;;;;5033380;28;19909;-68
2022/12/24 15:14:27;;;;;;;67.35;45.60;;;15.90;99.90;;;;;;5032031;28;20500;-68
2022/12/24 15:17:33;;;;;;;78.97;50.25;;;15.90;99.90;;;;;;5032899;28;20048;-68
2022/12/24 15:20:45;;;;;;;158.85;113.00;;;15.80;99.90;;;;;;5033331;28;20052;-67
2022/12/24 15:23:50;;;;;;;143.02;112.18;;;15.90;99.90;;;;;;5032662;28;20037;-67
2022/12/24 15:26:55;;;;;;;121.38;81.75;;;15.90;99.90;;;;;;5032360;28;20045;-67
2022/12/24 15:30:11;;;;;;;95.45;58.78;;;15.90;99.90;;;;;;5032673;28;20045;-67
2022/12/24 15:33:15;;;;;;;83.25;53.60;;;15.90;99.90;;;;;;5032309;28;20044;-67
2022/12/24 15:36:33;;;;;;;79.10;51.67;;;15.90;99.90;;;;;;5032706;28;20417;-68
2022/12/24 15:39:38;;;;;;;75.65;48.30;;;15.80;99.90;;;;;;5032820;28;20041;-67
2022/12/24 15:42:43;;;;;;;77.35;46.60;;;15.80;99.90;;;;;;5032362;28;20056;-67
2022/12/24 15:45:47;;;;;;;92.70;53.67;;;15.80;99.90;;;;;;5032470;28;20048;-68
2022/12/24 15:48:54;;;;;;;92.32;50.75;;;15.80;99.90;;;;;;5032221;28;20401;-68
2022/12/24 15:52:08;;;;;;;85.80;52.65;;;15.80;99.90;;;;;;5032563;28;20376;-67
2022/12/24 15:55:37;;;;;;;97.05;60.97;;;15.80;99.90;;;;;;5042756;28;20056;-68
2022/12/24 15:58:43;;;;;;;88.82;55.65;;;15.80;99.90;;;;;;5032557;28;20052;-69
2022/12/24 16:01:47;;;;;;;89.47;55.30;;;15.70;99.90;;;;;;5042751;28;20044;-68
2022/12/24 16:04:51;;;;;;;79.22;51.28;;;15.70;99.90;;;;;;5031872;28;20045;-68
2022/12/24 16:08:15;;;;;;;83.40;48.67;;;15.70;99.90;;;;;;5032582;28;20056;-67
2022/12/24 16:11:32;;;;;;;80.82;46.75;;;15.70;99.90;;;;;;5032303;28;20048;-67
2022/12/24 16:14:37;;;;;;;73.88;44.65;;;15.70;99.90;;;;;;5032272;28;20049;-68
2022/12/24 16:17:48;;;;;;;76.50;48.35;;;15.70;99.90;;;;;;5032091;28;20062;-68